sensor_id;sensor_type;location;lat;lon;timestamp;P1;durP1;ratioP1;P2;durP2;ratioP2
67272;SDS011;54190;49.770;9.250;2023-05-17T00:01:48;4.00;;;1.43;;
67272;SDS011;54190;49.770;9.250;2023-05-17T00:04:13;6.33;;;1.43;;
67272;SDS011;54190;49.770;9.250;2023-05-17T00:06:40;5.50;;;1.93;;
67272;SDS011;54190;49.770;9.250;2023-05-17T00:09:07;5.20;;;1.27;;
67272;SDS011;54190;49.770;9.250;2023-05-17T00:11:33;6.00;;;1.70;;
67272;SDS011;54190;49.770;9.250;2023-05-17T00:13:59;7.37;;;1.90;;
67272;SDS011;54190;49.770;9.250;2023-05-17T00:16:25;5.53;;;1.70;;
67272;SDS011;54190;49.770;9.250;2023-05-17T00:18:50;3.00;;;1.50;;
67272;SDS011;54190;49.770;9.250;2023-05-17T00:21:16;6.23;;;2.10;;
67272;SDS011;54190;49.770;9.250;2023-05-17T00:23:42;2.50;;;1.57;;
67272;SDS011;54190;49.770;9.250;2023-05-17T00:26:08;4.47;;;1.80;;
67272;SDS011;54190;49.770;9.250;2023-05-17T00:28:33;5.13;;;2.10;;
67272;SDS011;54190;49.770;9.250;2023-05-17T00:30:59;2.83;;;1.57;;
67272;SDS011;54190;49.770;9.250;2023-05-17T00:33:25;3.60;;;1.53;;
67272;SDS011;54190;49.770;9.250;2023-05-17T00:35:50;3.27;;;1.80;;
67272;SDS011;54190;49.770;9.250;2023-05-17T00:38:16;2.70;;;1.50;;
67272;SDS011;54190;49.770;9.250;2023-05-17T00:40:42;3.10;;;1.70;;
67272;SDS011;54190;49.770;9.250;2023-05-17T00:43:08;4.30;;;1.83;;
67272;SDS011;54190;49.770;9.250;2023-05-17T00:45:33;5.30;;;2.20;;
67272;SDS011;54190;49.770;9.250;2023-05-17T00:48:00;5.10;;;2.00;;
67272;SDS011;54190;49.770;9.250;2023-05-17T00:50:27;4.20;;;2.20;;
67272;SDS011;54190;49.770;9.250;2023-05-17T00:52:52;3.13;;;1.70;;
67272;SDS011;54190;49.770;9.250;2023-05-17T00:55:19;2.73;;;1.90;;
67272;SDS011;54190;49.770;9.250;2023-05-17T00:57:45;3.47;;;2.13;;
67272;SDS011;54190;49.770;9.250;2023-05-17T01:00:11;2.33;;;1.60;;
67272;SDS011;54190;49.770;9.250;2023-05-17T01:02:37;5.20;;;2.20;;
67272;SDS011;54190;49.770;9.250;2023-05-17T01:05:03;4.20;;;1.80;;
67272;SDS011;54190;49.770;9.250;2023-05-17T01:07:29;3.20;;;1.80;;
67272;SDS011;54190;49.770;9.250;2023-05-17T01:09:55;6.97;;;2.10;;
67272;SDS011;54190;49.770;9.250;2023-05-17T01:15:04;2.30;;;1.60;;
67272;SDS011;54190;49.770;9.250;2023-05-17T01:17:39;3.03;;;1.80;;
67272;SDS011;54190;49.770;9.250;2023-05-17T01:20:32;4.30;;;1.80;;
67272;SDS011;54190;49.770;9.250;2023-05-17T01:23:09;4.03;;;1.67;;
67272;SDS011;54190;49.770;9.250;2023-05-17T01:25:54;3.70;;;1.63;;
67272;SDS011;54190;49.770;9.250;2023-05-17T01:28:28;5.93;;;1.60;;
67272;SDS011;54190;49.770;9.250;2023-05-17T01:30:56;6.50;;;1.83;;
67272;SDS011;54190;49.770;9.250;2023-05-17T01:33:25;4.90;;;1.50;;
67272;SDS011;54190;49.770;9.250;2023-05-17T01:35:50;3.77;;;1.60;;
67272;SDS011;54190;49.770;9.250;2023-05-17T01:38:18;5.30;;;1.77;;
67272;SDS011;54190;49.770;9.250;2023-05-17T01:40:50;3.33;;;1.77;;
67272;SDS011;54190;49.770;9.250;2023-05-17T01:43:44;5.10;;;1.60;;
67272;SDS011;54190;49.770;9.250;2023-05-17T01:46:27;5.00;;;1.70;;
67272;SDS011;54190;49.770;9.250;2023-05-17T01:51:48;5.87;;;1.83;;
67272;SDS011;54190;49.770;9.250;2023-05-17T01:54:45;3.37;;;1.80;;
67272;SDS011;54190;49.770;9.250;2023-05-17T01:57:15;2.90;;;2.00;;
67272;SDS011;54190;49.770;9.250;2023-05-17T01:59:44;6.10;;;1.70;;
67272;SDS011;54190;49.770;9.250;2023-05-17T02:02:10;2.93;;;1.77;;
67272;SDS011;54190;49.770;9.250;2023-05-17T02:04:37;3.23;;;1.63;;
67272;SDS011;54190;49.770;9.250;2023-05-17T02:07:03;4.17;;;1.80;;
67272;SDS011;54190;49.770;9.250;2023-05-17T02:09:29;6.27;;;2.03;;
67272;SDS011;54190;49.770;9.250;2023-05-17T02:11:55;5.97;;;2.17;;
67272;SDS011;54190;49.770;9.250;2023-05-17T02:14:21;3.53;;;2.00;;
67272;SDS011;54190;49.770;9.250;2023-05-17T02:16:46;3.50;;;1.40;;
67272;SDS011;54190;49.770;9.250;2023-05-17T02:19:12;2.50;;;1.60;;
67272;SDS011;54190;49.770;9.250;2023-05-17T02:21:39;2.53;;;1.80;;
67272;SDS011;54190;49.770;9.250;2023-05-17T02:24:04;4.10;;;1.80;;
67272;SDS011;54190;49.770;9.250;2023-05-17T02:26:30;4.13;;;1.80;;
67272;SDS011;54190;49.770;9.250;2023-05-17T02:28:57;4.30;;;1.83;;
67272;SDS011;54190;49.770;9.250;2023-05-17T02:31:23;6.27;;;1.70;;
67272;SDS011;54190;49.770;9.250;2023-05-17T02:33:52;5.10;;;2.20;;
67272;SDS011;54190;49.770;9.250;2023-05-17T02:36:18;5.50;;;2.57;;
67272;SDS011;54190;49.770;9.250;2023-05-17T02:38:44;2.93;;;1.70;;
67272;SDS011;54190;49.770;9.250;2023-05-17T02:41:10;4.30;;;2.10;;
67272;SDS011;54190;49.770;9.250;2023-05-17T02:43:36;3.00;;;1.90;;
67272;SDS011;54190;49.770;9.250;2023-05-17T02:46:02;3.30;;;1.93;;
67272;SDS011;54190;49.770;9.250;2023-05-17T02:48:28;4.17;;;2.20;;
67272;SDS011;54190;49.770;9.250;2023-05-17T02:50:53;4.30;;;1.97;;
67272;SDS011;54190;49.770;9.250;2023-05-17T02:53:19;3.70;;;1.80;;
67272;SDS011;54190;49.770;9.250;2023-05-17T02:55:45;6.73;;;2.10;;
67272;SDS011;54190;49.770;9.250;2023-05-17T02:58:12;3.43;;;1.87;;
67272;SDS011;54190;49.770;9.250;2023-05-17T03:00:37;2.67;;;1.73;;
67272;SDS011;54190;49.770;9.250;2023-05-17T03:03:03;3.90;;;2.53;;
67272;SDS011;54190;49.770;9.250;2023-05-17T03:05:30;3.73;;;2.30;;
67272;SDS011;54190;49.770;9.250;2023-05-17T03:07:55;4.63;;;2.23;;
67272;SDS011;54190;49.770;9.250;2023-05-17T03:10:21;3.43;;;2.10;;
67272;SDS011;54190;49.770;9.250;2023-05-17T03:12:47;4.80;;;2.23;;
67272;SDS011;54190;49.770;9.250;2023-05-17T03:15:16;3.20;;;2.20;;
67272;SDS011;54190;49.770;9.250;2023-05-17T03:17:42;7.30;;;2.10;;
67272;SDS011;54190;49.770;9.250;2023-05-17T03:20:08;4.90;;;2.00;;
67272;SDS011;54190;49.770;9.250;2023-05-17T03:22:34;4.13;;;1.97;;
67272;SDS011;54190;49.770;9.250;2023-05-17T03:25:00;4.53;;;2.03;;
67272;SDS011;54190;49.770;9.250;2023-05-17T03:27:27;4.17;;;2.27;;
67272;SDS011;54190;49.770;9.250;2023-05-17T03:29:54;2.93;;;2.00;;
67272;SDS011;54190;49.770;9.250;2023-05-17T03:32:22;3.10;;;1.97;;
67272;SDS011;54190;49.770;9.250;2023-05-17T03:34:48;5.90;;;2.10;;
67272;SDS011;54190;49.770;9.250;2023-05-17T03:37:13;6.07;;;2.00;;
67272;SDS011;54190;49.770;9.250;2023-05-17T03:39:39;3.83;;;2.30;;
67272;SDS011;54190;49.770;9.250;2023-05-17T03:42:05;3.60;;;1.60;;
67272;SDS011;54190;49.770;9.250;2023-05-17T03:44:32;8.53;;;2.17;;
67272;SDS011;54190;49.770;9.250;2023-05-17T03:46:57;2.90;;;2.00;;
67272;SDS011;54190;49.770;9.250;2023-05-17T03:49:23;3.10;;;1.93;;
67272;SDS011;54190;49.770;9.250;2023-05-17T03:51:50;2.53;;;1.70;;
67272;SDS011;54190;49.770;9.250;2023-05-17T03:54:16;4.80;;;2.03;;
67272;SDS011;54190;49.770;9.250;2023-05-17T03:56:42;2.97;;;1.70;;
67272;SDS011;54190;49.770;9.250;2023-05-17T03:59:13;3.37;;;1.87;;
67272;SDS011;54190;49.770;9.250;2023-05-17T04:01:39;7.73;;;2.00;;
67272;SDS011;54190;49.770;9.250;2023-05-17T04:04:06;3.63;;;2.20;;
67272;SDS011;54190;49.770;9.250;2023-05-17T04:06:32;5.97;;;2.07;;
67272;SDS011;54190;49.770;9.250;2023-05-17T04:08:58;5.53;;;1.90;;
67272;SDS011;54190;49.770;9.250;2023-05-17T04:11:27;7.37;;;2.30;;
67272;SDS011;54190;49.770;9.250;2023-05-17T04:13:53;2.80;;;1.90;;
67272;SDS011;54190;49.770;9.250;2023-05-17T04:16:21;7.80;;;2.97;;
67272;SDS011;54190;49.770;9.250;2023-05-17T04:18:46;6.00;;;2.43;;
67272;SDS011;54190;49.770;9.250;2023-05-17T04:21:16;3.00;;;2.17;;
67272;SDS011;54190;49.770;9.250;2023-05-17T04:23:43;3.07;;;2.10;;
67272;SDS011;54190;49.770;9.250;2023-05-17T04:26:09;4.20;;;2.00;;
67272;SDS011;54190;49.770;9.250;2023-05-17T04:28:37;3.80;;;2.47;;
67272;SDS011;54190;49.770;9.250;2023-05-17T04:31:05;4.53;;;2.10;;
67272;SDS011;54190;49.770;9.250;2023-05-17T04:33:32;4.27;;;2.20;;
67272;SDS011;54190;49.770;9.250;2023-05-17T04:35:58;7.47;;;2.20;;
67272;SDS011;54190;49.770;9.250;2023-05-17T04:38:26;4.20;;;2.50;;
67272;SDS011;54190;49.770;9.250;2023-05-17T04:40:53;10.30;;;3.00;;
67272;SDS011;54190;49.770;9.250;2023-05-17T04:43:19;3.17;;;2.30;;
67272;SDS011;54190;49.770;9.250;2023-05-17T04:45:45;4.63;;;2.20;;
67272;SDS011;54190;49.770;9.250;2023-05-17T04:48:11;3.80;;;2.40;;
67272;SDS011;54190;49.770;9.250;2023-05-17T04:50:36;3.93;;;1.90;;
67272;SDS011;54190;49.770;9.250;2023-05-17T04:53:03;3.60;;;2.37;;
67272;SDS011;54190;49.770;9.250;2023-05-17T04:55:31;4.83;;;2.50;;
67272;SDS011;54190;49.770;9.250;2023-05-17T04:57:57;5.00;;;2.80;;
67272;SDS011;54190;49.770;9.250;2023-05-17T05:00:24;5.37;;;3.30;;
67272;SDS011;54190;49.770;9.250;2023-05-17T05:02:57;8.83;;;3.80;;
67272;SDS011;54190;49.770;9.250;2023-05-17T05:05:24;12.20;;;3.20;;
67272;SDS011;54190;49.770;9.250;2023-05-17T05:07:50;8.73;;;2.90;;
67272;SDS011;54190;49.770;9.250;2023-05-17T05:10:16;3.03;;;2.10;;
67272;SDS011;54190;49.770;9.250;2023-05-17T05:12:42;4.50;;;2.30;;
67272;SDS011;54190;49.770;9.250;2023-05-17T05:15:09;6.47;;;2.97;;
67272;SDS011;54190;49.770;9.250;2023-05-17T05:17:37;4.30;;;2.77;;
67272;SDS011;54190;49.770;9.250;2023-05-17T05:20:03;4.77;;;2.47;;
67272;SDS011;54190;49.770;9.250;2023-05-17T05:22:29;4.93;;;2.57;;
67272;SDS011;54190;49.770;9.250;2023-05-17T05:24:55;4.70;;;2.30;;
67272;SDS011;54190;49.770;9.250;2023-05-17T05:27:21;9.40;;;2.43;;
67272;SDS011;54190;49.770;9.250;2023-05-17T05:29:47;11.50;;;2.73;;
67272;SDS011;54190;49.770;9.250;2023-05-17T05:32:12;5.70;;;2.97;;
67272;SDS011;54190;49.770;9.250;2023-05-17T05:34:43;5.23;;;2.60;;
67272;SDS011;54190;49.770;9.250;2023-05-17T05:37:09;5.03;;;2.70;;
67272;SDS011;54190;49.770;9.250;2023-05-17T05:39:35;5.10;;;3.10;;
67272;SDS011;54190;49.770;9.250;2023-05-17T05:42:01;10.17;;;3.30;;
67272;SDS011;54190;49.770;9.250;2023-05-17T05:44:28;8.00;;;3.20;;
67272;SDS011;54190;49.770;9.250;2023-05-17T05:46:55;9.10;;;3.47;;
67272;SDS011;54190;49.770;9.250;2023-05-17T05:49:21;8.50;;;3.30;;
67272;SDS011;54190;49.770;9.250;2023-05-17T05:51:47;6.80;;;3.10;;
67272;SDS011;54190;49.770;9.250;2023-05-17T05:54:14;9.60;;;3.30;;
67272;SDS011;54190;49.770;9.250;2023-05-17T05:56:41;4.97;;;2.93;;
67272;SDS011;54190;49.770;9.250;2023-05-17T05:59:09;5.40;;;2.80;;
67272;SDS011;54190;49.770;9.250;2023-05-17T06:01:35;5.30;;;2.83;;
67272;SDS011;54190;49.770;9.250;2023-05-17T06:04:02;5.47;;;2.83;;
67272;SDS011;54190;49.770;9.250;2023-05-17T06:06:28;6.20;;;2.77;;
67272;SDS011;54190;49.770;9.250;2023-05-17T06:08:53;6.10;;;2.83;;
67272;SDS011;54190;49.770;9.250;2023-05-17T06:11:20;6.90;;;2.70;;
67272;SDS011;54190;49.770;9.250;2023-05-17T06:13:46;6.33;;;3.27;;
67272;SDS011;54190;49.770;9.250;2023-05-17T06:16:11;5.73;;;3.40;;
67272;SDS011;54190;49.770;9.250;2023-05-17T06:18:37;7.10;;;3.00;;
67272;SDS011;54190;49.770;9.250;2023-05-17T06:21:03;7.13;;;3.47;;
67272;SDS011;54190;49.770;9.250;2023-05-17T06:23:28;7.50;;;3.67;;
67272;SDS011;54190;49.770;9.250;2023-05-17T06:25:54;6.60;;;3.30;;
67272;SDS011;54190;49.770;9.250;2023-05-17T06:28:20;6.47;;;3.50;;
67272;SDS011;54190;49.770;9.250;2023-05-17T06:30:45;6.30;;;3.20;;
67272;SDS011;54190;49.770;9.250;2023-05-17T06:33:11;8.13;;;3.63;;
67272;SDS011;54190;49.770;9.250;2023-05-17T06:35:36;5.53;;;3.30;;
67272;SDS011;54190;49.770;9.250;2023-05-17T06:38:02;8.00;;;3.20;;
67272;SDS011;54190;49.770;9.250;2023-05-17T06:40:28;7.73;;;3.20;;
67272;SDS011;54190;49.770;9.250;2023-05-17T06:42:54;6.47;;;3.50;;
67272;SDS011;54190;49.770;9.250;2023-05-17T06:45:20;6.30;;;3.43;;
67272;SDS011;54190;49.770;9.250;2023-05-17T06:47:45;7.13;;;3.57;;
67272;SDS011;54190;49.770;9.250;2023-05-17T06:50:12;6.60;;;3.30;;
67272;SDS011;54190;49.770;9.250;2023-05-17T06:52:38;9.60;;;3.90;;
67272;SDS011;54190;49.770;9.250;2023-05-17T06:55:03;7.57;;;3.80;;
67272;SDS011;54190;49.770;9.250;2023-05-17T06:57:29;8.07;;;3.33;;
67272;SDS011;54190;49.770;9.250;2023-05-17T06:59:55;8.60;;;4.60;;
67272;SDS011;54190;49.770;9.250;2023-05-17T07:02:21;7.53;;;3.33;;
67272;SDS011;54190;49.770;9.250;2023-05-17T07:04:47;5.97;;;3.67;;
67272;SDS011;54190;49.770;9.250;2023-05-17T07:07:12;8.80;;;3.67;;
67272;SDS011;54190;49.770;9.250;2023-05-17T07:09:38;5.87;;;3.50;;
67272;SDS011;54190;49.770;9.250;2023-05-17T07:12:04;12.93;;;3.80;;
67272;SDS011;54190;49.770;9.250;2023-05-17T07:14:30;10.47;;;4.50;;
67272;SDS011;54190;49.770;9.250;2023-05-17T07:16:56;11.10;;;3.67;;
67272;SDS011;54190;49.770;9.250;2023-05-17T07:19:22;12.77;;;4.00;;
67272;SDS011;54190;49.770;9.250;2023-05-17T07:21:50;7.00;;;3.53;;
67272;SDS011;54190;49.770;9.250;2023-05-17T07:24:16;8.50;;;3.90;;
67272;SDS011;54190;49.770;9.250;2023-05-17T07:26:41;10.40;;;3.60;;
67272;SDS011;54190;49.770;9.250;2023-05-17T07:29:07;5.50;;;3.27;;
67272;SDS011;54190;49.770;9.250;2023-05-17T07:31:33;8.57;;;3.40;;
67272;SDS011;54190;49.770;9.250;2023-05-17T07:33:59;8.87;;;3.63;;
67272;SDS011;54190;49.770;9.250;2023-05-17T07:36:24;8.67;;;3.90;;
67272;SDS011;54190;49.770;9.250;2023-05-17T07:38:54;8.53;;;4.00;;
67272;SDS011;54190;49.770;9.250;2023-05-17T07:41:20;12.13;;;4.07;;
67272;SDS011;54190;49.770;9.250;2023-05-17T07:43:47;6.87;;;3.93;;
67272;SDS011;54190;49.770;9.250;2023-05-17T07:46:14;8.87;;;4.30;;
67272;SDS011;54190;49.770;9.250;2023-05-17T07:48:39;14.43;;;5.10;;
67272;SDS011;54190;49.770;9.250;2023-05-17T07:51:05;12.23;;;4.90;;
67272;SDS011;54190;49.770;9.250;2023-05-17T07:53:31;10.23;;;5.37;;
67272;SDS011;54190;49.770;9.250;2023-05-17T07:55:57;8.37;;;3.40;;
67272;SDS011;54190;49.770;9.250;2023-05-17T07:58:22;8.47;;;4.53;;
67272;SDS011;54190;49.770;9.250;2023-05-17T08:00:48;10.57;;;4.57;;
67272;SDS011;54190;49.770;9.250;2023-05-17T08:03:13;7.87;;;3.67;;
67272;SDS011;54190;49.770;9.250;2023-05-17T08:05:39;8.60;;;4.00;;
67272;SDS011;54190;49.770;9.250;2023-05-17T08:08:05;9.03;;;3.97;;
67272;SDS011;54190;49.770;9.250;2023-05-17T08:10:32;7.33;;;3.57;;
67272;SDS011;54190;49.770;9.250;2023-05-17T08:13:02;8.70;;;3.90;;
67272;SDS011;54190;49.770;9.250;2023-05-17T08:15:28;9.67;;;3.90;;
67272;SDS011;54190;49.770;9.250;2023-05-17T08:17:54;9.90;;;4.20;;
67272;SDS011;54190;49.770;9.250;2023-05-17T08:20:20;7.40;;;3.80;;
67272;SDS011;54190;49.770;9.250;2023-05-17T08:22:46;11.70;;;4.10;;
67272;SDS011;54190;49.770;9.250;2023-05-17T08:25:11;7.17;;;3.93;;
67272;SDS011;54190;49.770;9.250;2023-05-17T08:27:37;10.63;;;4.23;;
67272;SDS011;54190;49.770;9.250;2023-05-17T08:30:03;7.47;;;3.90;;
67272;SDS011;54190;49.770;9.250;2023-05-17T08:32:29;13.60;;;5.07;;
67272;SDS011;54190;49.770;9.250;2023-05-17T08:34:55;7.97;;;3.60;;
67272;SDS011;54190;49.770;9.250;2023-05-17T08:37:21;12.07;;;4.60;;
67272;SDS011;54190;49.770;9.250;2023-05-17T08:39:47;6.83;;;3.73;;
67272;SDS011;54190;49.770;9.250;2023-05-17T08:42:14;6.43;;;4.00;;
67272;SDS011;54190;49.770;9.250;2023-05-17T08:44:46;7.20;;;3.60;;
67272;SDS011;54190;49.770;9.250;2023-05-17T08:47:13;10.17;;;3.60;;
67272;SDS011;54190;49.770;9.250;2023-05-17T08:49:49;11.10;;;4.23;;
67272;SDS011;54190;49.770;9.250;2023-05-17T08:52:16;8.30;;;3.77;;
67272;SDS011;54190;49.770;9.250;2023-05-17T08:54:42;9.67;;;4.70;;
67272;SDS011;54190;49.770;9.250;2023-05-17T08:57:07;8.53;;;3.57;;
67272;SDS011;54190;49.770;9.250;2023-05-17T08:59:36;7.90;;;4.70;;
67272;SDS011;54190;49.770;9.250;2023-05-17T09:02:03;9.63;;;3.77;;
67272;SDS011;54190;49.770;9.250;2023-05-17T09:04:29;7.60;;;4.10;;
67272;SDS011;54190;49.770;9.250;2023-05-17T09:06:56;13.03;;;4.30;;
67272;SDS011;54190;49.770;9.250;2023-05-17T09:09:21;10.00;;;4.40;;
67272;SDS011;54190;49.770;9.250;2023-05-17T09:11:47;5.90;;;3.50;;
67272;SDS011;54190;49.770;9.250;2023-05-17T09:14:13;8.77;;;4.23;;
67272;SDS011;54190;49.770;9.250;2023-05-17T09:16:41;7.37;;;3.90;;
67272;SDS011;54190;49.770;9.250;2023-05-17T09:19:08;6.37;;;3.50;;
67272;SDS011;54190;49.770;9.250;2023-05-17T09:21:39;7.33;;;4.27;;
67272;SDS011;54190;49.770;9.250;2023-05-17T09:24:04;8.40;;;3.83;;
67272;SDS011;54190;49.770;9.250;2023-05-17T09:26:40;8.60;;;3.93;;
67272;SDS011;54190;49.770;9.250;2023-05-17T09:29:08;6.30;;;3.40;;
67272;SDS011;54190;49.770;9.250;2023-05-17T09:31:34;8.37;;;4.20;;
67272;SDS011;54190;49.770;9.250;2023-05-17T09:34:00;6.77;;;3.60;;
67272;SDS011;54190;49.770;9.250;2023-05-17T09:36:26;9.00;;;3.90;;
67272;SDS011;54190;49.770;9.250;2023-05-17T09:38:55;7.17;;;3.70;;
67272;SDS011;54190;49.770;9.250;2023-05-17T09:41:39;11.00;;;4.10;;
67272;SDS011;54190;49.770;9.250;2023-05-17T09:44:09;9.77;;;4.87;;
67272;SDS011;54190;49.770;9.250;2023-05-17T09:46:37;9.27;;;4.00;;
67272;SDS011;54190;49.770;9.250;2023-05-17T09:49:06;6.03;;;3.67;;
67272;SDS011;54190;49.770;9.250;2023-05-17T09:51:33;8.03;;;3.83;;
67272;SDS011;54190;49.770;9.250;2023-05-17T09:54:00;8.90;;;4.27;;
67272;SDS011;54190;49.770;9.250;2023-05-17T09:56:29;8.60;;;3.90;;
67272;SDS011;54190;49.770;9.250;2023-05-17T09:58:55;8.50;;;3.73;;
67272;SDS011;54190;49.770;9.250;2023-05-17T10:01:24;10.10;;;4.20;;
67272;SDS011;54190;49.770;9.250;2023-05-17T10:03:51;5.50;;;3.33;;
67272;SDS011;54190;49.770;9.250;2023-05-17T10:06:19;6.33;;;3.50;;
67272;SDS011;54190;49.770;9.250;2023-05-17T10:08:51;7.17;;;3.57;;
67272;SDS011;54190;49.770;9.250;2023-05-17T10:11:20;7.83;;;4.03;;
67272;SDS011;54190;49.770;9.250;2023-05-17T10:14:08;7.33;;;3.83;;
67272;SDS011;54190;49.770;9.250;2023-05-17T10:16:34;12.83;;;3.77;;
67272;SDS011;54190;49.770;9.250;2023-05-17T10:19:02;6.83;;;3.93;;
67272;SDS011;54190;49.770;9.250;2023-05-17T10:21:29;11.00;;;4.10;;
67272;SDS011;54190;49.770;9.250;2023-05-17T10:23:56;6.50;;;3.47;;
67272;SDS011;54190;49.770;9.250;2023-05-17T10:26:25;7.10;;;3.57;;
67272;SDS011;54190;49.770;9.250;2023-05-17T10:28:52;7.57;;;3.30;;
67272;SDS011;54190;49.770;9.250;2023-05-17T10:31:25;6.43;;;3.20;;
67272;SDS011;54190;49.770;9.250;2023-05-17T10:34:01;8.77;;;3.47;;
67272;SDS011;54190;49.770;9.250;2023-05-17T10:36:29;11.90;;;3.83;;
67272;SDS011;54190;49.770;9.250;2023-05-17T10:38:55;6.27;;;3.00;;
67272;SDS011;54190;49.770;9.250;2023-05-17T10:41:23;9.07;;;3.50;;
67272;SDS011;54190;49.770;9.250;2023-05-17T10:43:52;5.90;;;3.23;;
67272;SDS011;54190;49.770;9.250;2023-05-17T10:46:19;9.90;;;3.10;;
67272;SDS011;54190;49.770;9.250;2023-05-17T10:48:50;8.57;;;3.50;;
67272;SDS011;54190;49.770;9.250;2023-05-17T10:51:21;4.80;;;2.80;;
67272;SDS011;54190;49.770;9.250;2023-05-17T10:56:32;6.43;;;3.40;;
67272;SDS011;54190;49.770;9.250;2023-05-17T10:59:14;6.10;;;3.50;;
67272;SDS011;54190;49.770;9.250;2023-05-17T11:01:49;10.37;;;3.60;;
67272;SDS011;54190;49.770;9.250;2023-05-17T11:04:22;9.87;;;3.50;;
67272;SDS011;54190;49.770;9.250;2023-05-17T11:09:45;8.60;;;3.87;;
67272;SDS011;54190;49.770;9.250;2023-05-17T11:12:16;7.50;;;3.00;;
67272;SDS011;54190;49.770;9.250;2023-05-17T11:15:08;7.50;;;3.67;;
67272;SDS011;54190;49.770;9.250;2023-05-17T11:20:07;8.00;;;3.60;;
67272;SDS011;54190;49.770;9.250;2023-05-17T11:22:57;8.63;;;3.50;;
67272;SDS011;54190;49.770;9.250;2023-05-17T11:25:42;5.10;;;3.10;;
67272;SDS011;54190;49.770;9.250;2023-05-17T11:28:16;6.37;;;3.30;;
67272;SDS011;54190;49.770;9.250;2023-05-17T11:30:43;7.60;;;3.30;;
67272;SDS011;54190;49.770;9.250;2023-05-17T11:33:15;8.93;;;3.57;;
67272;SDS011;54190;49.770;9.250;2023-05-17T11:35:43;5.33;;;3.17;;
67272;SDS011;54190;49.770;9.250;2023-05-17T11:38:19;5.80;;;3.30;;
67272;SDS011;54190;49.770;9.250;2023-05-17T11:40:47;6.20;;;3.00;;
67272;SDS011;54190;49.770;9.250;2023-05-17T11:43:23;11.10;;;3.30;;
67272;SDS011;54190;49.770;9.250;2023-05-17T11:45:55;6.53;;;3.17;;
67272;SDS011;54190;49.770;9.250;2023-05-17T11:48:22;6.60;;;3.30;;
67272;SDS011;54190;49.770;9.250;2023-05-17T11:50:49;5.83;;;3.30;;
67272;SDS011;54190;49.770;9.250;2023-05-17T11:53:17;6.33;;;3.13;;
67272;SDS011;54190;49.770;9.250;2023-05-17T11:55:44;7.00;;;3.37;;
67272;SDS011;54190;49.770;9.250;2023-05-17T11:58:13;10.53;;;3.63;;
67272;SDS011;54190;49.770;9.250;2023-05-17T12:00:40;6.60;;;3.10;;
67272;SDS011;54190;49.770;9.250;2023-05-17T12:05:59;9.33;;;3.93;;
67272;SDS011;54190;49.770;9.250;2023-05-17T12:08:27;10.80;;;3.30;;
67272;SDS011;54190;49.770;9.250;2023-05-17T12:10:54;8.10;;;3.50;;
67272;SDS011;54190;49.770;9.250;2023-05-17T12:13:22;6.00;;;3.43;;
67272;SDS011;54190;49.770;9.250;2023-05-17T12:15:55;6.60;;;3.33;;
67272;SDS011;54190;49.770;9.250;2023-05-17T12:18:23;6.83;;;3.37;;
67272;SDS011;54190;49.770;9.250;2023-05-17T12:21:00;6.67;;;3.70;;
67272;SDS011;54190;49.770;9.250;2023-05-17T12:23:29;6.40;;;3.40;;
67272;SDS011;54190;49.770;9.250;2023-05-17T12:26:03;5.53;;;2.63;;
67272;SDS011;54190;49.770;9.250;2023-05-17T12:28:37;5.57;;;3.20;;
67272;SDS011;54190;49.770;9.250;2023-05-17T12:31:06;7.23;;;3.23;;
67272;SDS011;54190;49.770;9.250;2023-05-17T12:33:35;6.53;;;3.10;;
67272;SDS011;54190;49.770;9.250;2023-05-17T12:36:03;8.07;;;3.50;;
67272;SDS011;54190;49.770;9.250;2023-05-17T12:38:33;7.10;;;3.10;;
67272;SDS011;54190;49.770;9.250;2023-05-17T12:41:00;6.50;;;3.27;;
67272;SDS011;54190;49.770;9.250;2023-05-17T12:43:28;5.17;;;3.23;;
67272;SDS011;54190;49.770;9.250;2023-05-17T12:46:08;6.50;;;3.57;;
67272;SDS011;54190;49.770;9.250;2023-05-17T12:48:44;5.90;;;3.50;;
67272;SDS011;54190;49.770;9.250;2023-05-17T12:51:15;5.33;;;3.03;;
67272;SDS011;54190;49.770;9.250;2023-05-17T12:53:43;9.27;;;4.30;;
67272;SDS011;54190;49.770;9.250;2023-05-17T12:56:14;8.63;;;3.43;;
67272;SDS011;54190;49.770;9.250;2023-05-17T13:01:46;7.40;;;3.70;;
67272;SDS011;54190;49.770;9.250;2023-05-17T13:04:14;7.70;;;3.30;;
67272;SDS011;54190;49.770;9.250;2023-05-17T13:06:44;6.97;;;3.53;;
67272;SDS011;54190;49.770;9.250;2023-05-17T13:09:10;6.30;;;3.70;;
67272;SDS011;54190;49.770;9.250;2023-05-17T13:11:36;6.10;;;3.33;;
67272;SDS011;54190;49.770;9.250;2023-05-17T13:14:08;5.47;;;2.97;;
67272;SDS011;54190;49.770;9.250;2023-05-17T13:16:37;7.70;;;3.40;;
67272;SDS011;54190;49.770;9.250;2023-05-17T13:19:12;5.17;;;2.87;;
67272;SDS011;54190;49.770;9.250;2023-05-17T13:21:38;7.00;;;2.93;;
67272;SDS011;54190;49.770;9.250;2023-05-17T13:24:04;8.97;;;3.27;;
67272;SDS011;54190;49.770;9.250;2023-05-17T13:26:30;5.63;;;3.07;;
67272;SDS011;54190;49.770;9.250;2023-05-17T13:28:56;6.73;;;3.47;;
67272;SDS011;54190;49.770;9.250;2023-05-17T13:31:21;5.67;;;3.23;;
67272;SDS011;54190;49.770;9.250;2023-05-17T13:33:47;9.47;;;3.33;;
67272;SDS011;54190;49.770;9.250;2023-05-17T13:36:14;5.77;;;3.03;;
67272;SDS011;54190;49.770;9.250;2023-05-17T13:38:40;6.07;;;2.90;;
67272;SDS011;54190;49.770;9.250;2023-05-17T13:41:06;7.80;;;3.50;;
67272;SDS011;54190;49.770;9.250;2023-05-17T13:43:34;4.73;;;2.53;;
67272;SDS011;54190;49.770;9.250;2023-05-17T13:46:00;7.97;;;3.30;;
67272;SDS011;54190;49.770;9.250;2023-05-17T13:48:26;5.60;;;3.13;;
67272;SDS011;54190;49.770;9.250;2023-05-17T13:50:52;6.23;;;2.70;;
67272;SDS011;54190;49.770;9.250;2023-05-17T13:53:17;5.90;;;3.07;;
67272;SDS011;54190;49.770;9.250;2023-05-17T13:55:43;5.80;;;2.73;;
67272;SDS011;54190;49.770;9.250;2023-05-17T13:58:09;7.27;;;3.30;;
67272;SDS011;54190;49.770;9.250;2023-05-17T14:00:35;8.70;;;3.43;;
67272;SDS011;54190;49.770;9.250;2023-05-17T14:03:01;8.53;;;3.10;;
67272;SDS011;54190;49.770;9.250;2023-05-17T14:05:27;5.23;;;3.03;;
67272;SDS011;54190;49.770;9.250;2023-05-17T14:07:55;5.70;;;3.40;;
67272;SDS011;54190;49.770;9.250;2023-05-17T14:10:20;7.10;;;3.87;;
67272;SDS011;54190;49.770;9.250;2023-05-17T14:12:46;7.07;;;3.30;;
67272;SDS011;54190;49.770;9.250;2023-05-17T14:15:12;4.80;;;2.90;;
67272;SDS011;54190;49.770;9.250;2023-05-17T14:17:38;6.73;;;2.97;;
67272;SDS011;54190;49.770;9.250;2023-05-17T14:20:04;7.00;;;2.93;;
67272;SDS011;54190;49.770;9.250;2023-05-17T14:22:30;5.47;;;3.33;;
67272;SDS011;54190;49.770;9.250;2023-05-17T14:24:55;7.53;;;2.97;;
67272;SDS011;54190;49.770;9.250;2023-05-17T14:27:21;7.53;;;3.03;;
67272;SDS011;54190;49.770;9.250;2023-05-17T14:29:46;5.60;;;2.80;;
67272;SDS011;54190;49.770;9.250;2023-05-17T14:32:12;5.97;;;3.00;;
67272;SDS011;54190;49.770;9.250;2023-05-17T14:34:38;7.70;;;3.50;;
67272;SDS011;54190;49.770;9.250;2023-05-17T14:37:04;4.60;;;2.60;;
67272;SDS011;54190;49.770;9.250;2023-05-17T14:39:29;6.33;;;3.00;;
67272;SDS011;54190;49.770;9.250;2023-05-17T14:41:55;5.83;;;2.57;;
67272;SDS011;54190;49.770;9.250;2023-05-17T14:44:20;4.37;;;2.57;;
67272;SDS011;54190;49.770;9.250;2023-05-17T14:46:46;5.87;;;3.07;;
67272;SDS011;54190;49.770;9.250;2023-05-17T14:49:13;8.27;;;3.03;;
67272;SDS011;54190;49.770;9.250;2023-05-17T14:51:39;7.90;;;2.90;;
67272;SDS011;54190;49.770;9.250;2023-05-17T14:54:04;6.23;;;3.23;;
67272;SDS011;54190;49.770;9.250;2023-05-17T14:56:30;6.90;;;3.27;;
67272;SDS011;54190;49.770;9.250;2023-05-17T14:58:56;6.70;;;3.00;;
67272;SDS011;54190;49.770;9.250;2023-05-17T15:01:22;5.33;;;3.13;;
67272;SDS011;54190;49.770;9.250;2023-05-17T15:03:47;6.60;;;3.27;;
67272;SDS011;54190;49.770;9.250;2023-05-17T15:06:14;5.60;;;2.40;;
67272;SDS011;54190;49.770;9.250;2023-05-17T15:08:40;6.07;;;3.23;;